createdAt,value
2022-09-29T00:02:10.114Z,9.35
2022-09-29T00:04:36.909Z,9.31
2022-09-29T00:07:03.506Z,9.28
2022-09-29T00:09:31.074Z,9.28
2022-09-29T00:11:57.640Z,9.27
2022-09-29T00:14:24.610Z,9.24
2022-09-29T00:16:51.369Z,9.22
2022-09-29T00:19:18.127Z,9.17
2022-09-29T00:21:44.847Z,9.13
2022-09-29T00:24:11.746Z,9.08
2022-09-29T00:26:38.437Z,9.03
2022-09-29T00:29:05.303Z,9.01
2022-09-29T00:31:33.805Z,9.01
2022-09-29T00:34:00.660Z,9.01
2022-09-29T00:36:31.082Z,8.98
2022-09-29T00:38:58.695Z,8.92
2022-09-29T00:41:28.401Z,8.86
2022-09-29T00:44:01.385Z,8.79
2022-09-29T00:46:27.913Z,8.74
2022-09-29T00:48:59.740Z,8.66
2022-09-29T00:51:27.811Z,8.58
2022-09-29T00:53:54.883Z,8.54
2022-09-29T00:56:21.559Z,8.49
2022-09-29T00:59:11.756Z,8.43
2022-09-29T01:01:38.402Z,8.37
2022-09-29T01:04:10.566Z,8.30
2022-09-29T01:06:55.078Z,8.22
2022-09-29T01:09:27.083Z,8.18
2022-09-29T01:11:58.174Z,8.12
2022-09-29T01:14:26.507Z,8.06
2022-09-29T01:16:53.004Z,8.01
2022-09-29T01:19:25.496Z,7.96
2022-09-29T01:22:06.339Z,7.91
2022-09-29T01:25:00.764Z,7.87
2022-09-29T01:27:40.054Z,7.82
2022-09-29T01:30:14.705Z,7.78
2022-09-29T01:33:09.247Z,7.73
2022-09-29T01:36:15.141Z,7.69
2022-09-29T01:38:46.837Z,7.64
2022-09-29T01:41:41.016Z,7.60
2022-09-29T01:44:45.413Z,7.55
2022-09-29T01:47:20.655Z,7.51
2022-09-29T01:49:54.694Z,7.47
2022-09-29T01:52:25.708Z,7.42
2022-09-29T01:54:59.033Z,7.38
2022-09-29T01:57:35.437Z,7.34
2022-09-29T02:00:11.006Z,7.32
2022-09-29T02:02:42.120Z,7.27
2022-09-29T02:05:17.898Z,7.25
2022-09-29T02:07:47.339Z,7.22
2022-09-29T02:10:24.052Z,7.18
2022-09-29T02:12:53.892Z,7.15
2022-09-29T02:15:26.938Z,7.13
2022-09-29T02:17:57.071Z,7.09
2022-09-29T02:20:24.535Z,7.08
2022-09-29T02:22:51.106Z,7.06
2022-09-29T02:25:19.377Z,7.03
2022-09-29T02:27:48.281Z,7.00
2022-09-29T02:30:14.971Z,6.98
2022-09-29T02:32:41.513Z,6.94
2022-09-29T02:35:11.757Z,6.93
2022-09-29T02:37:47.393Z,6.90
2022-09-29T02:40:29.104Z,6.87
2022-09-29T02:43:14.330Z,6.87
2022-09-29T02:45:57.023Z,6.83
2022-09-29T02:48:29.662Z,6.80
2022-09-29T02:51:10.423Z,6.78
2022-09-29T02:53:47.839Z,6.75
2022-09-29T02:56:20.090Z,6.73
2022-09-29T02:59:12.214Z,6.71
2022-09-29T03:01:49.563Z,6.69
2022-09-29T03:04:16.113Z,6.67
2022-09-29T03:06:42.830Z,6.64
2022-09-29T03:09:09.460Z,6.62
2022-09-29T03:11:35.972Z,6.61
2022-09-29T03:14:03.232Z,6.60
2022-09-29T03:16:29.951Z,6.57
2022-09-29T03:18:57.044Z,6.56
2022-09-29T03:21:23.894Z,6.54
2022-09-29T03:23:53.145Z,6.53
2022-09-29T03:26:24.073Z,6.51
2022-09-29T03:28:51.590Z,6.48
2022-09-29T03:31:18.634Z,6.47
2022-09-29T03:33:45.340Z,6.44
2022-09-29T03:36:12.193Z,6.43
2022-09-29T03:38:39.206Z,6.41
2022-09-29T03:41:06.885Z,6.39
2022-09-29T03:43:33.627Z,6.37
2022-09-29T03:46:00.257Z,6.36
2022-09-29T03:48:31.142Z,6.35
2022-09-29T03:50:58.766Z,6.34
2022-09-29T03:53:25.307Z,6.31
2022-09-29T03:55:51.945Z,6.32
2022-09-29T03:58:18.934Z,6.30
2022-09-29T04:00:47.313Z,6.28
2022-09-29T04:03:13.968Z,6.27
2022-09-29T04:05:40.669Z,6.25
2022-09-29T04:08:08.889Z,6.24
2022-09-29T04:10:36.362Z,6.23
2022-09-29T04:13:04.067Z,6.22
2022-09-29T04:15:30.773Z,6.19
2022-09-29T04:17:57.402Z,6.19
2022-09-29T04:20:23.927Z,6.17
2022-09-29T04:22:50.540Z,6.15
2022-09-29T04:25:17.260Z,6.12
2022-09-29T04:27:44.335Z,6.11
2022-09-29T04:30:11.583Z,6.10
2022-09-29T04:32:38.670Z,6.08
2022-09-29T04:35:05.900Z,6.06
2022-09-29T04:37:32.536Z,6.05
2022-09-29T04:39:59.248Z,6.04
2022-09-29T04:42:26.208Z,6.04
2022-09-29T04:44:52.708Z,6.03
2022-09-29T04:47:19.302Z,6.01
2022-09-29T04:49:45.818Z,6.01
2022-09-29T04:52:12.999Z,5.98
2022-09-29T04:54:39.916Z,5.97
2022-09-29T04:57:07.313Z,5.96
2022-09-29T04:59:33.995Z,5.94
2022-09-29T05:02:00.703Z,5.93
2022-09-29T05:04:27.246Z,5.91
2022-09-29T05:06:53.735Z,5.90
2022-09-29T05:09:24.174Z,5.90
2022-09-29T05:11:51.418Z,5.89
2022-09-29T05:14:18.007Z,5.89
2022-09-29T05:16:44.532Z,5.88
2022-09-29T05:19:11.162Z,5.88
2022-09-29T05:21:37.720Z,5.88
2022-09-29T05:24:04.325Z,5.89
2022-09-29T05:26:31.017Z,5.91
2022-09-29T05:28:57.606Z,5.93
2022-09-29T05:31:24.343Z,5.95
2022-09-29T05:33:51.028Z,5.95
2022-09-29T05:36:17.901Z,5.97
2022-09-29T05:38:44.755Z,6.00
2022-09-29T05:41:12.809Z,6.02
2022-09-29T05:43:40.373Z,6.05
2022-09-29T05:46:09.727Z,6.07
2022-09-29T05:48:36.687Z,6.09
2022-09-29T05:51:23.067Z,6.12
2022-09-29T05:53:50.739Z,6.15
2022-09-29T05:56:23.637Z,6.21
2022-09-29T05:58:51.251Z,6.23
2022-09-29T06:01:23.438Z,6.26
2022-09-29T06:03:53.796Z,6.32
2022-09-29T06:06:23.493Z,6.36
2022-09-29T06:08:50.348Z,6.40
2022-09-29T06:11:19.610Z,6.45
2022-09-29T06:13:48.765Z,6.48
2022-09-29T06:16:18.406Z,6.53
2022-09-29T06:18:45.017Z,6.59
2022-09-29T06:21:14.192Z,6.63
2022-09-29T06:23:41.011Z,6.69
2022-09-29T06:26:10.375Z,6.74
2022-09-29T06:28:37.166Z,6.82
2022-09-29T06:31:12.506Z,6.89
2022-09-29T06:33:39.242Z,6.95
2022-09-29T06:36:39.287Z,7.02
2022-09-29T06:39:07.696Z,7.09
2022-09-29T06:41:35.226Z,7.13
2022-09-29T06:44:04.779Z,7.17
2022-09-29T06:46:32.258Z,7.22
2022-09-29T06:48:58.856Z,7.27
2022-09-29T06:51:37.040Z,7.31
2022-09-29T06:54:12.552Z,7.36
2022-09-29T06:56:39.926Z,7.38
2022-09-29T06:59:07.195Z,7.40
2022-09-29T07:01:34.286Z,7.44
2022-09-29T07:04:02.263Z,7.48
2022-09-29T07:06:29.394Z,7.51
2022-09-29T07:08:56.945Z,7.55
2022-09-29T07:11:23.577Z,7.61
2022-09-29T07:13:54.523Z,7.67
2022-09-29T07:16:25.788Z,7.74
2022-09-29T07:18:52.678Z,7.80
2022-09-29T07:21:20.004Z,7.87
2022-09-29T07:23:47.191Z,7.93
2022-09-29T07:26:16.364Z,8.01
2022-09-29T07:28:43.348Z,8.09
2022-09-29T07:31:16.343Z,8.17
2022-09-29T07:33:48.019Z,8.28
2022-09-29T07:36:16.801Z,8.37
2022-09-29T07:38:49.745Z,8.44
2022-09-29T07:41:18.813Z,8.53
2022-09-29T07:43:45.622Z,8.61
2022-09-29T07:46:12.671Z,8.69
2022-09-29T07:48:40.076Z,8.76
2022-09-29T07:51:18.227Z,8.82
2022-09-29T07:53:44.966Z,8.90
2022-09-29T07:56:22.855Z,8.97
2022-09-29T07:58:50.878Z,9.04
2022-09-29T08:01:19.123Z,9.10
2022-09-29T08:03:51.015Z,9.19
2022-09-29T08:06:18.280Z,9.28
2022-09-29T08:08:55.648Z,9.35
2022-09-29T08:11:31.537Z,9.44
2022-09-29T08:13:58.907Z,9.52
2022-09-29T08:16:25.946Z,9.58
2022-09-29T08:18:52.632Z,9.67
2022-09-29T08:21:19.167Z,9.71
2022-09-29T08:23:45.706Z,9.76
2022-09-29T08:26:32.895Z,9.81
2022-09-29T08:29:08.613Z,9.87
2022-09-29T08:31:38.042Z,9.94
2022-09-29T08:34:04.933Z,10.01
2022-09-29T08:36:33.419Z,10.08
2022-09-29T08:39:00.224Z,10.12
2022-09-29T08:41:47.110Z,10.19
2022-09-29T08:44:38.403Z,10.28
2022-09-29T08:47:21.715Z,10.36
2022-09-29T08:49:55.501Z,10.39
2022-09-29T08:52:26.834Z,10.46
2022-09-29T08:55:21.139Z,10.51
2022-09-29T08:57:54.568Z,10.59
2022-09-29T09:00:25.229Z,10.65
2022-09-29T09:02:57.705Z,10.70
2022-09-29T09:05:30.202Z,10.77
2022-09-29T09:08:25.720Z,10.88
2022-09-29T09:11:16.202Z,10.99
2022-09-29T09:14:04.332Z,11.15
2022-09-29T09:16:49.116Z,11.29
2022-09-29T09:19:57.369Z,11.45
2022-09-29T09:22:30.255Z,11.60
2022-09-29T09:25:07.720Z,11.65
2022-09-29T09:27:42.470Z,11.65
2022-09-29T09:30:18.114Z,11.61
2022-09-29T09:32:52.209Z,11.57
2022-09-29T09:35:24.102Z,11.63
2022-09-29T09:37:53.779Z,11.69
2022-09-29T09:40:25.111Z,11.73
2022-09-29T09:43:24.781Z,11.76
2022-09-29T09:46:17.078Z,11.84
2022-09-29T09:48:51.689Z,11.89
2022-09-29T09:51:25.986Z,11.93
2022-09-29T09:53:55.462Z,11.94
2022-09-29T09:57:10.419Z,11.94
2022-09-29T09:59:55.228Z,11.92
2022-09-29T10:02:24.543Z,11.90
2022-09-29T10:04:53.285Z,11.89
2022-09-29T10:07:20.993Z,11.97
2022-09-29T10:09:48.129Z,12.05
2022-09-29T10:12:19.578Z,12.19
2022-09-29T10:14:57.448Z,12.26
2022-09-29T10:17:27.856Z,12.40
2022-09-29T10:19:56.187Z,12.65
2022-09-29T10:22:23.338Z,13.02
2022-09-29T10:24:54.844Z,13.27
2022-09-29T10:27:26.130Z,13.52
2022-09-29T10:29:54.661Z,13.73
2022-09-29T10:32:37.536Z,13.73
2022-09-29T10:35:15.070Z,13.78
2022-09-29T10:37:46.624Z,13.80
2022-09-29T10:40:21.360Z,13.87
2022-09-29T10:42:51.144Z,13.79
2022-09-29T10:45:25.550Z,13.71
2022-09-29T10:47:58.198Z,13.63
2022-09-29T10:50:36.739Z,13.72
2022-09-29T10:53:17.136Z,13.82
2022-09-29T10:55:55.968Z,13.94
2022-09-29T10:58:52.650Z,14.02
2022-09-29T11:01:22.489Z,14.07
2022-09-29T11:03:55.474Z,14.11
2022-09-29T11:06:31.588Z,14.09
2022-09-29T11:09:35.655Z,14.07
2022-09-29T11:12:07.384Z,14.14
2022-09-29T11:14:38.530Z,14.35
2022-09-29T11:17:23.653Z,14.37
2022-09-29T11:19:56.024Z,14.30
2022-09-29T11:22:32.826Z,14.24
2022-09-29T11:25:41.349Z,14.26
2022-09-29T11:28:29.639Z,14.45
2022-09-29T11:31:09.420Z,14.71
2022-09-29T11:33:55.585Z,14.89
2022-09-29T11:36:45.924Z,14.99
2022-09-29T11:39:20.787Z,15.15
2022-09-29T11:42:01.850Z,15.26
2022-09-29T11:44:52.494Z,15.29
2022-09-29T11:47:33.035Z,15.21
2022-09-29T11:50:21.527Z,15.28
2022-09-29T11:52:58.368Z,15.30
2022-09-29T11:55:51.279Z,15.16
2022-09-29T11:58:23.804Z,14.98
2022-09-29T12:01:02.177Z,14.81
2022-09-29T12:03:41.415Z,14.74
2022-09-29T12:06:35.274Z,14.65
2022-09-29T12:09:28.760Z,14.64
2022-09-29T12:12:19.035Z,14.56
2022-09-29T12:15:03.269Z,14.46
2022-09-29T12:17:36.060Z,14.42
2022-09-29T12:20:16.549Z,14.42
2022-09-29T12:22:46.176Z,14.46
2022-09-29T12:25:17.436Z,14.50
2022-09-29T12:27:46.726Z,14.52
2022-09-29T12:30:39.413Z,14.57
2022-09-29T12:33:17.434Z,14.52
2022-09-29T12:36:07.716Z,14.43
2022-09-29T12:38:42.955Z,14.39
2022-09-29T12:41:22.702Z,14.39
2022-09-29T12:43:59.119Z,14.38
2022-09-29T12:46:30.784Z,14.38
2022-09-29T12:49:27.835Z,14.38
2022-09-29T12:51:57.095Z,14.43
2022-09-29T12:54:40.229Z,14.50
2022-09-29T12:57:15.867Z,14.56
2022-09-29T13:00:12.784Z,14.78
2022-09-29T13:03:12.920Z,14.97
2022-09-29T13:05:48.813Z,15.24
2022-09-29T13:08:19.461Z,15.40
2022-09-29T13:11:07.156Z,15.64
2022-09-29T13:13:52.432Z,15.95
2022-09-29T13:16:37.926Z,16.27
2022-09-29T13:19:56.104Z,16.47
2022-09-29T13:22:47.508Z,16.63
2022-09-29T13:25:23.539Z,16.75
2022-09-29T13:27:52.612Z,16.78
2022-09-29T13:30:29.238Z,16.86
2022-09-29T13:33:11.601Z,16.87
2022-09-29T13:35:44.796Z,16.71
2022-09-29T13:38:26.300Z,16.57
2022-09-29T13:41:15.285Z,16.53
2022-09-29T13:43:51.030Z,16.58
2022-09-29T13:46:29.986Z,16.68
2022-09-29T13:49:08.447Z,16.70
2022-09-29T13:51:58.805Z,16.80
2022-09-29T13:54:25.281Z,16.87
2022-09-29T13:57:25.294Z,16.85
2022-09-29T14:00:11.540Z,16.68
2022-09-29T14:03:02.218Z,16.54
2022-09-29T14:05:28.758Z,16.46
2022-09-29T14:07:55.944Z,16.38
2022-09-29T14:10:42.251Z,16.24
2022-09-29T14:13:11.685Z,16.11
2022-09-29T14:15:43.947Z,16.04
2022-09-29T14:18:48.706Z,15.97
2022-09-29T14:21:47.143Z,15.88
2022-09-29T14:24:35.508Z,15.79
2022-09-29T14:27:14.689Z,15.78
2022-09-29T14:29:50.074Z,15.83
2022-09-29T14:32:33.571Z,15.82
2022-09-29T14:35:01.572Z,15.81
2022-09-29T14:37:28.272Z,15.76
2022-09-29T14:40:14.585Z,15.73
2022-09-29T14:42:41.150Z,15.66
2022-09-29T14:45:26.843Z,15.63
2022-09-29T14:48:36.060Z,15.66
2022-09-29T14:51:44.678Z,15.70
2022-09-29T14:54:52.632Z,15.76
2022-09-29T14:57:36.963Z,15.82
2022-09-29T15:00:12.770Z,15.91
2022-09-29T15:02:44.561Z,16.01
2022-09-29T15:05:30.733Z,16.13
2022-09-29T15:07:59.599Z,16.20
2022-09-29T15:10:47.975Z,16.25
2022-09-29T15:13:23.648Z,16.33
2022-09-29T15:15:55.113Z,16.38
2022-09-29T15:18:49.063Z,16.36
2022-09-29T15:21:22.568Z,16.33
2022-09-29T15:24:16.416Z,16.34
2022-09-29T15:26:44.806Z,16.36
2022-09-29T15:29:17.786Z,16.38
2022-09-29T15:31:47.932Z,16.41
2022-09-29T15:34:21.290Z,16.35
2022-09-29T15:36:51.804Z,16.26
2022-09-29T15:39:33.388Z,16.15
2022-09-29T15:42:12.227Z,16.03
2022-09-29T15:44:38.771Z,15.90
2022-09-29T15:47:05.253Z,15.82
2022-09-29T15:49:31.831Z,15.77
2022-09-29T15:52:07.116Z,15.67
2022-09-29T15:57:22.992Z,15.52
2022-09-29T15:59:53.211Z,15.48
2022-09-29T16:02:36.229Z,15.46
2022-09-29T16:05:13.982Z,15.42
2022-09-29T16:07:48.942Z,15.36
2022-09-29T16:10:18.345Z,15.32
2022-09-29T16:12:53.754Z,15.31
2022-09-29T16:15:31.196Z,15.33
2022-09-29T16:18:01.846Z,15.41
2022-09-29T16:20:31.223Z,15.60
2022-09-29T16:23:07.049Z,15.90
2022-09-29T16:25:34.582Z,16.17
2022-09-29T16:28:09.573Z,16.30
2022-09-29T16:30:41.079Z,16.12
2022-09-29T16:33:16.917Z,15.96
2022-09-29T16:35:50.917Z,15.84
2022-09-29T16:38:20.445Z,15.72
2022-09-29T16:40:47.580Z,15.61
2022-09-29T16:43:23.320Z,15.48
2022-09-29T16:45:52.705Z,15.36
2022-09-29T16:48:20.216Z,15.23
2022-09-29T16:50:48.466Z,15.11
2022-09-29T16:53:30.470Z,14.98
2022-09-29T16:56:07.002Z,14.84
2022-09-29T16:58:33.546Z,14.71
2022-09-29T17:01:00.092Z,14.56
2022-09-29T17:03:26.628Z,14.44
2022-09-29T17:05:54.505Z,14.31
2022-09-29T17:08:24.055Z,14.17
2022-09-29T17:10:52.629Z,14.04
2022-09-29T17:13:20.245Z,13.90
2022-09-29T17:15:51.487Z,13.77
2022-09-29T17:18:20.614Z,13.64
2022-09-29T17:20:47.231Z,13.53
2022-09-29T17:23:13.929Z,13.39
2022-09-29T17:25:43.096Z,13.29
2022-09-29T17:28:28.394Z,13.17
2022-09-29T17:30:56.120Z,13.07
2022-09-29T17:33:22.728Z,12.96
2022-09-29T17:35:55.333Z,12.85
2022-09-29T17:38:23.737Z,12.74
2022-09-29T17:41:02.340Z,12.63
2022-09-29T17:43:31.235Z,12.54
2022-09-29T17:45:59.498Z,12.44
2022-09-29T17:48:27.251Z,12.36
2022-09-29T17:50:56.505Z,12.28
2022-09-29T17:53:25.323Z,12.20
2022-09-29T17:55:54.519Z,12.13
2022-09-29T17:58:22.850Z,12.04
2022-09-29T18:00:52.326Z,11.97
2022-09-29T18:03:20.286Z,11.89
2022-09-29T18:05:56.798Z,11.82
2022-09-29T18:08:25.881Z,11.74
2022-09-29T18:10:57.582Z,11.69
2022-09-29T18:13:27.362Z,11.62
2022-09-29T18:15:55.521Z,11.56
2022-09-29T18:18:23.134Z,11.48
2022-09-29T18:20:50.634Z,11.42
2022-09-29T18:23:19.236Z,11.36
2022-09-29T18:25:48.082Z,11.32
2022-09-29T18:28:16.977Z,11.25
2022-09-29T18:30:47.398Z,11.18
2022-09-29T18:33:16.372Z,11.14
2022-09-29T18:35:44.916Z,11.09
2022-09-29T18:38:11.911Z,11.05
2022-09-29T18:40:39.517Z,11.00
2022-09-29T18:43:07.211Z,10.95
2022-09-29T18:45:38.105Z,10.86
2022-09-29T18:48:08.288Z,10.81
2022-09-29T18:50:43.264Z,10.77
2022-09-29T18:53:10.603Z,10.71
2022-09-29T18:55:37.121Z,10.66
2022-09-29T18:58:04.255Z,10.62
2022-09-29T19:00:34.458Z,10.56
2022-09-29T19:03:02.716Z,10.52
2022-09-29T19:05:31.446Z,10.47
2022-09-29T19:08:00.152Z,10.41
2022-09-29T19:10:31.228Z,10.36
2022-09-29T19:12:59.507Z,10.32
2022-09-29T19:15:26.281Z,10.26
2022-09-29T19:17:57.212Z,10.23
2022-09-29T19:20:26.408Z,10.17
2022-09-29T19:22:54.769Z,10.16
2022-09-29T19:25:25.352Z,10.11
2022-09-29T19:27:52.621Z,10.07
2022-09-29T19:30:21.756Z,10.02
2022-09-29T19:32:49.401Z,10.00
2022-09-29T19:35:19.979Z,9.95
2022-09-29T19:37:47.341Z,9.91
2022-09-29T19:40:19.168Z,9.86
2022-09-29T19:42:46.328Z,9.84
2022-09-29T19:45:12.988Z,9.81
2022-09-29T19:47:39.897Z,9.78
2022-09-29T19:50:26.646Z,9.74
2022-09-29T19:52:54.028Z,9.71
2022-09-29T19:55:21.253Z,9.68
2022-09-29T19:57:47.823Z,9.62
2022-09-29T20:00:20.343Z,9.55
2022-09-29T20:02:47.405Z,9.50
2022-09-29T20:05:15.515Z,9.46
2022-09-29T20:07:46.800Z,9.42
2022-09-29T20:10:16.554Z,9.39
2022-09-29T20:12:43.652Z,9.37
2022-09-29T20:15:13.984Z,9.33
2022-09-29T20:17:41.114Z,9.29
2022-09-29T20:20:10.018Z,9.27
2022-09-29T20:22:36.919Z,9.24
2022-09-29T20:25:05.316Z,9.20
2022-09-29T20:27:31.895Z,9.19
2022-09-29T20:29:58.451Z,9.16
2022-09-29T20:32:25.249Z,9.13
2022-09-29T20:34:51.837Z,9.10
2022-09-29T20:37:18.396Z,9.07
2022-09-29T20:39:44.904Z,9.02
2022-09-29T20:42:11.857Z,9.01
2022-09-29T20:44:38.414Z,8.97
2022-09-29T20:47:06.101Z,8.94
2022-09-29T20:49:32.725Z,8.91
2022-09-29T20:51:59.384Z,8.89
2022-09-29T20:54:26.151Z,8.85
2022-09-29T20:56:53.736Z,8.84
2022-09-29T20:59:23.217Z,8.81
2022-09-29T21:01:51.060Z,8.77
2022-09-29T21:04:20.769Z,8.74
2022-09-29T21:06:50.608Z,8.72
2022-09-29T21:09:20.109Z,8.69
2022-09-29T21:11:47.296Z,8.66
2022-09-29T21:14:18.570Z,8.63
2022-09-29T21:16:48.565Z,8.62
2022-09-29T21:19:15.413Z,8.58
2022-09-29T21:21:43.873Z,8.57
2022-09-29T21:24:14.366Z,8.54
2022-09-29T21:26:41.930Z,8.52
2022-09-29T21:29:15.209Z,8.50
2022-09-29T21:31:41.859Z,8.48
2022-09-29T21:34:13.293Z,8.45
2022-09-29T21:36:39.891Z,8.42
2022-09-29T21:39:08.991Z,8.40
2022-09-29T21:41:41.140Z,8.38
2022-09-29T21:44:16.475Z,8.36
2022-09-29T21:46:43.490Z,8.34
2022-09-29T21:49:11.438Z,8.33
2022-09-29T21:51:40.725Z,8.31
2022-09-29T21:54:10.977Z,8.27
2022-09-29T21:56:40.379Z,8.24
2022-09-29T21:59:08.643Z,8.22
2022-09-29T22:01:35.388Z,8.20
2022-09-29T22:04:02.577Z,8.18
2022-09-29T22:06:31.651Z,8.16
2022-09-29T22:08:59.403Z,8.12
2022-09-29T22:11:28.571Z,8.10
2022-09-29T22:13:58.316Z,8.07
2022-09-29T22:16:29.221Z,8.05
2022-09-29T22:19:21.383Z,8.03
2022-09-29T22:21:44.333Z,8.02
2022-09-29T22:24:12.344Z,7.99
2022-09-29T22:26:40.342Z,7.96
2022-09-29T22:29:07.450Z,7.94
2022-09-29T22:31:34.562Z,7.91
2022-09-29T22:34:04.170Z,7.89
2022-09-29T22:36:33.225Z,7.88
2022-09-29T22:39:01.753Z,7.87
2022-09-29T22:41:29.159Z,7.85
2022-09-29T22:43:57.489Z,7.82
2022-09-29T22:46:26.385Z,7.80
2022-09-29T22:48:53.023Z,7.78
2022-09-29T22:51:22.812Z,7.77
2022-09-29T22:53:50.051Z,7.74
2022-09-29T22:56:18.819Z,7.70
2022-09-29T22:58:45.737Z,7.68
2022-09-29T23:01:15.256Z,7.67
2022-09-29T23:03:44.253Z,7.66
2022-09-29T23:06:11.604Z,7.63
2022-09-29T23:08:38.846Z,7.61
2022-09-29T23:11:07.362Z,7.58
2022-09-29T23:13:37.497Z,7.56
2022-09-29T23:16:11.981Z,7.53
2022-09-29T23:18:44.605Z,7.51
2022-09-29T23:21:18.994Z,7.48
2022-09-29T23:23:46.962Z,7.46
2022-09-29T23:26:13.535Z,7.46
2022-09-29T23:28:40.094Z,7.42
2022-09-29T23:31:08.091Z,7.40
2022-09-29T23:33:35.156Z,7.38
2022-09-29T23:36:06.827Z,7.36
2022-09-29T23:38:51.592Z,7.34
2022-09-29T23:41:20.578Z,7.32
2022-09-29T23:43:47.132Z,7.31
2022-09-29T23:46:13.808Z,7.30
2022-09-29T23:48:40.528Z,7.28
2022-09-29T23:51:08.628Z,7.25
2022-09-29T23:53:35.657Z,7.24
2022-09-29T23:56:02.477Z,7.24
2022-09-29T23:58:29.304Z,7.21
